Time;durP1;ratioP1;P1;durP2;ratioP2;P2;SDS_P1;SDS_P2;PMS_P1;PMS_P2;Temp;Humidity;BMP_temperature;BMP_pressure;BME280_temperature;BME280_humidity;BME280_pressure;Samples;Min_cycle;Max_cycle;Signal;HPM_P1;HPM_P2
2023/12/19 00:00:30;;;;;;;;;;;;;;;;;;5083497;28;19964;-63
2023/12/19 00:02:56;;;;;;;;;;;;;;;;;;5087643;28;19942;-63
2023/12/19 00:05:22;;;;;;;;;;;;;;;;;;5085184;28;20428;-63
2023/12/19 00:07:48;;;;;;;;;;;;;;;;;;5086929;28;19951;-63
2023/12/19 00:10:13;;;;;;;;;;;;;;;;;;5092694;28;20017;-63
2023/12/19 00:12:39;;;;;;;;;;;;;;;;;;5083440;28;19916;-63
2023/12/19 00:15:05;;;;;;;;;;;;;;;;;;5090699;28;19971;-64
2023/12/19 00:17:31;;;;;;;;;;;;;;;;;;5089843;28;19916;-67
2023/12/19 00:19:57;;;;;;;;;;;;;;;;;;5088827;28;19914;-66
2023/12/19 00:22:23;;;;;;;;;;;;;;;;;;5088557;28;19987;-66
2023/12/19 00:24:49;;;;;;;;;;;;;;;;;;5092331;28;19955;-67
2023/12/19 00:27:15;;;;;;;;;;;;;;;;;;5082075;28;20340;-66
2023/12/19 00:29:41;;;;;;;;;;;;;;;;;;5089830;28;19922;-65
2023/12/19 00:32:06;;;;;;;;;;;;;;;;;;5087066;28;19995;-65
2023/12/19 00:34:32;;;;;;;;;;;;;;;;;;5077666;28;19919;-66
2023/12/19 00:36:58;;;;;;;;;;;;;;;;;;5092315;28;19912;-67
2023/12/19 00:39:24;;;;;;;;;;;;;;;;;;5090805;28;20463;-66
2023/12/19 00:41:50;;;;;;;;;;;;;;;;;;5084962;28;20019;-65
2023/12/19 00:44:16;;;;;;;;;;;;;;;;;;5079618;28;19973;-64
2023/12/19 00:46:43;;;;;;;;;;;;;;;;;;5085827;28;20667;-66
2023/12/19 00:49:09;;;;;;;;;;;;;;;;;;5077353;28;19912;-64
2023/12/19 00:51:35;;;;;;;;;;;;;;;;;;5092435;28;20002;-66
2023/12/19 00:54:01;;;;;;;;;;;;;;;;;;5089559;28;21512;-66
2023/12/19 00:56:26;;;;;;;;;;;;;;;;;;5085438;28;19919;-65
2023/12/19 00:58:52;;;;;;;;;;;;;;;;;;5088193;28;19955;-65
2023/12/19 01:01:18;;;;;;;;;;;;;;;;;;5080638;28;19922;-66
2023/12/19 01:03:44;;;;;;;;;;;;;;;;;;5086347;28;20353;-66
2023/12/19 01:06:10;;;;;;;;;;;;;;;;;;5082396;28;20037;-66
2023/12/19 01:08:36;;;;;;;;;;;;;;;;;;5077798;28;19939;-65
2023/12/19 01:11:02;;;;;;;;;;;;;;;;;;5090802;28;19971;-66
2023/12/19 01:13:28;;;;;;;;;;;;;;;;;;5083724;28;19962;-66
2023/12/19 01:15:54;;;;;;;;;;;;;;;;;;5075465;28;19913;-68
2023/12/19 01:18:20;;;;;;;;;;;;;;;;;;5085451;28;19918;-66
2023/12/19 01:20:47;;;;;;;;;;;;;;;;;;5085579;28;19920;-65
2023/12/19 01:23:13;;;;;;;;;;;;;;;;;;5085187;28;19919;-66
2023/12/19 01:25:40;;;;;;;;;;;;;;;;;;5091321;28;20291;-63
2023/12/19 01:28:06;;;;;;;;;;;;;;;;;;5080068;28;19921;-63
2023/12/19 01:30:32;;;;;;;;;;;;;;;;;;5089094;28;19927;-63
2023/12/19 01:32:58;;;;;;;;;;;;;;;;;;5082763;28;19971;-63
2023/12/19 01:35:24;;;;;;;;;;;;;;;;;;5084238;28;19943;-63
2023/12/19 01:37:50;;;;;;;;;;;;;;;;;;5086128;28;19934;-63
2023/12/19 01:40:16;;;;;;;;;;;;;;;;;;5082592;28;19917;-63
2023/12/19 01:42:42;;;;;;;;;;;;;;;;;;5087516;28;20002;-64
2023/12/19 01:45:09;;;;;;;;;;;;;;;;;;5084011;28;19980;-64
2023/12/19 01:47:35;;;;;;;;;;;;;;;;;;5085580;28;19918;-63
2023/12/19 01:50:01;;;;;;;;;;;;;;;;;;5089679;28;19991;-63
2023/12/19 01:52:27;;;;;;;;;;;;;;;;;;5083645;28;20436;-64
2023/12/19 01:54:52;;;;;;;;;;;;;;;;;;5087580;28;19952;-63
2023/12/19 01:57:18;;;;;;;;;;;;;;;;;;5090283;28;20563;-63
2023/12/19 01:59:44;;;;;;;;;;;;;;;;;;5090454;28;19912;-63
2023/12/19 02:02:10;;;;;;;;;;;;;;;;;;5085106;28;19951;-63
2023/12/19 02:04:36;;;;;;;;;;;;;;;;;;5085783;28;19920;-63
2023/12/19 02:07:02;;;;;;;;;;;;;;;;;;5105340;22;19924;-80
2023/12/19 02:09:28;;;;;;;;;;;;;;;;;;5079210;22;19968;-64
2023/12/19 02:11:54;;;;;;;;;;;;;;;;;;5048361;28;20342;-65
2023/12/19 02:14:20;;;;;;;;;;;;;;;;;;5043120;28;19916;-66
2023/12/19 02:16:45;;;;;;;;;;;;;;;;;;5043999;28;20003;-65
2023/12/19 02:19:13;;;;;;;;;;;;;;;;;;5046356;28;19928;-65
2023/12/19 02:21:39;;;;;;;;;;;;;;;;;;5048304;28;20273;-65
2023/12/19 02:24:05;;;;;;;;;;;;;;;;;;5050348;28;19919;-66
2023/12/19 02:26:31;;;;;;;;;;;;;;;;;;5050176;28;20021;-64
2023/12/19 02:28:57;;;;;;;;;;;;;;;;;;5043166;28;20372;-64
2023/12/19 02:31:23;;;;;;;;;;;;;;;;;;5043959;28;19921;-65
2023/12/19 02:33:48;;;;;;;;;;;;;;;;;;5042123;28;20351;-65
2023/12/19 02:36:14;;;;;;;;;;;;;;;;;;5044438;28;19964;-65
2023/12/19 02:38:40;;;;;;;;;;;;;;;;;;5043179;28;20007;-65
2023/12/19 02:41:07;;;;;;;;;;;;;;;;;;5042048;28;19923;-66
2023/12/19 02:43:34;;;;;;;;;;;;;;;;;;5041812;28;20386;-64
2023/12/19 02:46:00;;;;;;;;;;;;;;;;;;5042237;28;19917;-65
2023/12/19 02:48:26;;;;;;;;;;;;;;;;;;5041133;28;20743;-66
2023/12/19 02:50:51;;;;;;;;;;;;;;;;;;5041852;28;19964;-64
2023/12/19 02:53:17;;;;;;;;;;;;;;;;;;5042991;28;19940;-65
2023/12/19 02:55:43;;;;;;;;;;;;;;;;;;5041514;28;19927;-65
2023/12/19 02:58:09;;;;;;;;;;;;;;;;;;5048542;28;19913;-66
2023/12/19 03:00:35;;;;;;;;;;;;;;;;;;5045477;28;19916;-67
2023/12/19 03:03:01;;;;;;;;;;;;;;;;;;5045916;28;20004;-66
2023/12/19 03:05:27;;;;;;;;;;;;;;;;;;5050294;28;19916;-65
2023/12/19 03:07:54;;;;;;;;;;;;;;;;;;5043553;28;20256;-66
2023/12/19 03:10:20;;;;;;;;;;;;;;;;;;5045991;28;19924;-66
2023/12/19 03:12:46;;;;;;;;;;;;;;;;;;5049838;28;20009;-65
2023/12/19 03:15:12;;;;;;;;;;;;;;;;;;5046779;28;20097;-65
2023/12/19 03:17:38;;;;;;;;;;;;;;;;;;5041571;28;19916;-66
2023/12/19 03:20:05;;;;;;;;;;;;;;;;;;5043054;28;19964;-66
2023/12/19 03:22:31;;;;;;;;;;;;;;;;;;5040564;28;20046;-66
2023/12/19 03:24:57;;;;;;;;;;;;;;;;;;5040396;28;20011;-65
2023/12/19 03:27:23;;;;;;;;;;;;;;;;;;5042939;28;19935;-65
2023/12/19 03:29:49;;;;;;;;;;;;;;;;;;5040569;28;19959;-64
2023/12/19 03:32:15;;;;;;;;;;;;;;;;;;5049579;28;20449;-64
2023/12/19 03:34:41;;;;;;;;;;;;;;;;;;5052694;28;19913;-65
2023/12/19 03:37:07;;;;;;;;;;;;;;;;;;5059571;28;20613;-64
2023/12/19 03:39:33;;;;;;;;;;;;;;;;;;5040515;28;19960;-64
2023/12/19 03:41:58;;;;;;;;;;;;;;;;;;5042643;28;19956;-64
2023/12/19 03:44:24;;;;;;;;;;;;;;;;;;5035479;28;20288;-64
2023/12/19 03:46:50;;;;;;;;;;;;;;;;;;5040681;28;19920;-65
2023/12/19 03:49:16;;;;;;;;;;;;;;;;;;5043614;28;20004;-64
2023/12/19 03:51:42;;;;;;;;;;;;;;;;;;5042401;28;19921;-64
2023/12/19 03:54:08;;;;;;;;;;;;;;;;;;5041314;28;20798;-64
2023/12/19 03:56:34;;;;;;;;;;;;;;;;;;5042788;28;19917;-64
2023/12/19 03:59:00;;;;;;;;;;;;;;;;;;5043584;28;19928;-65
2023/12/19 04:01:26;;;;;;;;;;;;;;;;;;5038797;28;20483;-65
2023/12/19 04:03:52;;;;;;;;;;;;;;;;;;5041845;28;19917;-64
2023/12/19 04:06:18;;;;;;;;;;;;;;;;;;5042236;28;19962;-65
2023/12/19 04:08:44;;;;;;;;;;;;;;;;;;5042758;28;20391;-65
2023/12/19 04:11:10;;;;;;;;;;;;;;;;;;5040497;28;19935;-64
2023/12/19 04:13:36;;;;;;;;;;;;;;;;;;5042591;28;20455;-64
2023/12/19 04:16:02;;;;;;;;;;;;;;;;;;5041322;28;20398;-65
2023/12/19 04:18:27;;;;;;;;;;;;;;;;;;5039581;28;19912;-65
2023/12/19 04:20:53;;;;;;;;;;;;;;;;;;5040157;28;19944;-65
2023/12/19 04:23:19;;;;;;;;;;;;;;;;;;5040719;28;19919;-65
2023/12/19 04:25:47;;;;;;;;;;;;;;;;;;5038854;28;19940;-65
2023/12/19 04:28:13;;;;;;;;;;;;;;;;;;5037592;28;19986;-64
2023/12/19 04:30:39;;;;;;;;;;;;;;;;;;5038595;28;19968;-65
2023/12/19 04:33:05;;;;;;;;;;;;;;;;;;5042562;28;19967;-65
2023/12/19 04:35:31;;;;;;;;;;;;;;;;;;5040449;28;19956;-65
2023/12/19 04:37:57;;;;;;;;;;;;;;;;;;5047920;28;20031;-65
2023/12/19 04:40:23;;;;;;;;;;;;;;;;;;5043305;28;19913;-64
2023/12/19 04:42:49;;;;;;;;;;;;;;;;;;5043348;28;19960;-64
2023/12/19 04:45:15;;;;;;;;;;;;;;;;;;5043103;28;19912;-65
2023/12/19 04:47:40;;;;;;;;;;;;;;;;;;5046071;28;19950;-65
2023/12/19 04:50:08;;;;;;;;;;;;;;;;;;5041851;28;20368;-66
2023/12/19 04:52:34;;;;;;;;;;;;;;;;;;5046019;28;19962;-64
2023/12/19 04:55:00;;;;;;;;;;;;;;;;;;5043822;28;19920;-64
2023/12/19 04:57:26;;;;;;;;;;;;;;;;;;5044693;28;20659;-64
2023/12/19 04:59:52;;;;;;;;;;;;;;;;;;5044010;28;20482;-65
2023/12/19 05:02:18;;;;;;;;;;;;;;;;;;5041616;28;19944;-64
2023/12/19 05:04:44;;;;;;;;;;;;;;;;;;5037211;28;19960;-64
2023/12/19 05:07:10;;;;;;;;;;;;;;;;;;5046254;28;19997;-65
2023/12/19 05:09:36;;;;;;;;;;;;;;;;;;5040067;28;19917;-65
2023/12/19 05:12:02;;;;;;;;;;;;;;;;;;5049979;28;19963;-65
2023/12/19 05:14:28;;;;;;;;;;;;;;;;;;5043822;28;19988;-66
2023/12/19 05:16:54;;;;;;;;;;;;;;;;;;5052841;28;19916;-65
2023/12/19 05:19:20;;;;;;;;;;;;;;;;;;5051304;28;19964;-64
2023/12/19 05:21:46;;;;;;;;;;;;;;;;;;5052485;28;20061;-66
2023/12/19 05:24:12;;;;;;;;;;;;;;;;;;5059078;28;20461;-66
2023/12/19 05:26:38;;;;;;;;;;;;;;;;;;5046776;28;19916;-66
2023/12/19 05:29:04;;;;;;;;;;;;;;;;;;5048435;28;19959;-65
2023/12/19 05:31:29;;;;;;;;;;;;;;;;;;5051266;28;19921;-66
2023/12/19 05:33:55;;;;;;;;;;;;;;;;;;5054323;28;20003;-66
2023/12/19 05:36:22;;;;;;;;;;;;;;;;;;5047372;28;19956;-66
2023/12/19 05:38:47;;;;;;;;;;;;;;;;;;5043251;28;20389;-64
2023/12/19 05:41:16;;;;;;;;;;;;;;;;;;5046673;28;19952;-64
2023/12/19 05:43:42;;;;;;;;;;;;;;;;;;5052943;28;19912;-64
2023/12/19 05:46:08;;;;;;;;;;;;;;;;;;5050832;28;20324;-64
2023/12/19 05:48:34;;;;;;;;;;;;;;;;;;5052586;28;20372;-64
2023/12/19 05:50:59;;;;;;;;;;;;;;;;;;5048727;28;19960;-64
2023/12/19 05:53:25;;;;;;;;;;;;;;;;;;5051841;28;19999;-64
2023/12/19 05:55:51;;;;;;;;;;;;;;;;;;5052608;28;19921;-64
2023/12/19 05:58:17;;;;;;;;;;;;;;;;;;5050312;28;20372;-64
2023/12/19 06:00:45;;;;;;;;;;;;;;;;;;5048008;28;19956;-65
2023/12/19 06:03:11;;;;;;;;;;;;;;;;;;5051812;28;19913;-65
2023/12/19 06:05:38;;;;;;;;;;;;;;;;;;5049998;28;20015;-66
2023/12/19 06:08:04;;;;;;;;;;;;;;;;;;5051188;28;19920;-66
2023/12/19 06:10:30;;;;;;;;;;;;;;;;;;5045361;28;19935;-66
2023/12/19 06:12:56;;;;;;;;;;;;;;;;;;5052302;28;19916;-66
2023/12/19 06:15:22;;;;;;;;;;;;;;;;;;5051581;28;19955;-66
2023/12/19 06:17:48;;;;;;;;;;;;;;;;;;5048776;28;19916;-66
2023/12/19 06:20:14;;;;;;;;;;;;;;;;;;5050049;28;19917;-67
2023/12/19 06:22:41;;;;;;;;;;;;;;;;;;5050101;28;19927;-66
2023/12/19 06:25:07;;;;;;;;;;;;;;;;;;5047680;28;19939;-66
2023/12/19 06:27:33;;;;;;;;;;;;;;;;;;5052342;28;19924;-66
2023/12/19 06:29:59;;;;;;;;;;;;;;;;;;5043046;28;20343;-66
2023/12/19 06:32:25;;;;;;;;;;;;;;;;;;5047081;28;20343;-66
2023/12/19 06:34:51;;;;;;;;;;;;;;;;;;5045134;28;20012;-66
2023/12/19 06:37:17;;;;;;;;;;;;;;;;;;5040145;28;19917;-66
2023/12/19 06:39:43;;;;;;;;;;;;;;;;;;5043851;28;19963;-66
2023/12/19 06:42:08;;;;;;;;;;;;;;;;;;5033209;28;19956;-66
2023/12/19 06:44:34;;;;;;;;;;;;;;;;;;5040619;28;19912;-66
2023/12/19 06:47:00;;;;;;;;;;;;;;;;;;5050065;28;20139;-66
2023/12/19 06:49:26;;;;;;;;;;;;;;;;;;5050671;28;19920;-66
2023/12/19 06:51:52;;;;;;;;;;;;;;;;;;5048430;28;20000;-66
2023/12/19 06:54:18;;;;;;;;;;;;;;;;;;5039852;28;19913;-66
2023/12/19 06:56:44;;;;;;;;;;;;;;;;;;5044400;28;20450;-66
2023/12/19 06:59:10;;;;;;;;;;;;;;;;;;5049337;28;20003;-65
2023/12/19 07:01:36;;;;;;;;;;;;;;;;;;5046254;28;19917;-65
2023/12/19 07:04:03;;;;;;;;;;;;;;;;;;5047137;28;20030;-65
2023/12/19 07:06:29;;;;;;;;;;;;;;;;;;5051841;28;20392;-65
2023/12/19 07:08:55;;;;;;;;;;;;;;;;;;5052687;28;19913;-65
2023/12/19 07:11:21;;;;;;;;;;;;;;;;;;5043709;28;20074;-65
2023/12/19 07:13:47;;;;;;;;;;;;;;;;;;5040932;28;19908;-65
2023/12/19 07:16:13;;;;;;;;;;;;;;;;;;5039243;28;20342;-65
2023/12/19 07:18:40;;;;;;;;;;;;;;;;;;5049298;28;19939;-66
2023/12/19 07:21:06;;;;;;;;;;;;;;;;;;5036311;28;19913;-65
2023/12/19 07:23:32;;;;;;;;;;;;;;;;;;5051160;28;19916;-66
2023/12/19 07:25:58;;;;;;;;;;;;;;;;;;5039700;28;20404;-65
2023/12/19 07:28:24;;;;;;;;;;;;;;;;;;5052078;28;19913;-66
2023/12/19 07:30:51;;;;;;;;;;;;;;;;;;5037690;28;21543;-66
2023/12/19 07:33:17;;;;;;;;;;;;;;;;;;5044099;28;20327;-65
2023/12/19 07:35:43;;;;;;;;;;;;;;;;;;5041676;28;19953;-65
2023/12/19 07:38:10;;;;;;;;;;;;;;;;;;5039881;28;19921;-65
2023/12/19 07:40:36;;;;;;;;;;;;;;;;;;5044333;28;19916;-65
2023/12/19 07:43:02;;;;;;;;;;;;;;;;;;5047390;28;19916;-65
2023/12/19 07:45:28;;;;;;;;;;;;;;;;;;5050324;28;19962;-65
2023/12/19 07:47:54;;;;;;;;;;;;;;;;;;5044356;28;19951;-65
2023/12/19 07:50:20;;;;;;;;;;;;;;;;;;5049421;28;20347;-65
2023/12/19 07:52:46;;;;;;;;;;;;;;;;;;5051139;28;19999;-66
2023/12/19 07:55:12;;;;;;;;;;;;;;;;;;5039236;28;20009;-66
2023/12/19 07:57:38;;;;;;;;;;;;;;;;;;5045149;28;19919;-66
2023/12/19 08:00:04;;;;;;;;;;;;;;;;;;5049574;28;19917;-63
2023/12/19 08:02:32;;;;;;;;;;;;;;;;;;5045631;28;20360;-66
2023/12/19 08:04:58;;;;;;;;;;;;;;;;;;5041356;28;20364;-66
2023/12/19 08:07:24;;;;;;;;;;;;;;;;;;5042359;28;19948;-66
2023/12/19 08:09:50;;;;;;;;;;;;;;;;;;5045415;28;19947;-67
2023/12/19 08:12:16;;;;;;;;;;;;;;;;;;5046502;28;19949;-67
2023/12/19 08:14:42;;;;;;;;;;;;;;;;;;5041059;28;20279;-67
2023/12/19 08:17:07;;;;;;;;;;;;;;;;;;5053745;28;20007;-67
2023/12/19 08:19:33;;;;;;;;;;;;;;;;;;5039458;28;19923;-66
2023/12/19 08:22:00;;;;;;;;;;;;;;;;;;5054344;28;19909;-66
2023/12/19 08:24:25;;;;;;;;;;;;;;;;;;5053110;28;19917;-65
2023/12/19 08:26:52;;;;;;;;;;;;;;;;;;5053543;28;19967;-66
2023/12/19 08:29:18;;;;;;;;;;;;;;;;;;5048667;28;19913;-66
2023/12/19 08:31:44;;;;;;;;;;;;;;;;;;5041710;28;19917;-66
2023/12/19 08:34:10;;;;;;;;;;;;;;;;;;5044779;28;19913;-65
2023/12/19 08:36:36;;;;;;;;;;;;;;;;;;5037256;28;19913;-66
2023/12/19 08:39:02;;;;;;;;;;;;;;;;;;5048185;28;19963;-66
2023/12/19 08:41:28;;;;;;;;;;;;;;;;;;5047503;28;19917;-66
2023/12/19 08:43:54;;;;;;;;;;;;;;;;;;5037045;28;19967;-66
2023/12/19 08:46:20;;;;;;;;;;;;;;;;;;5046022;28;19919;-66
2023/12/19 08:48:46;;;;;;;;;;;;;;;;;;5052064;28;20399;-65
2023/12/19 08:51:12;;;;;;;;;;;;;;;;;;5053490;28;20011;-65
2023/12/19 08:53:38;;;;;;;;;;;;;;;;;;5050427;28;19912;-65
2023/12/19 08:56:04;;;;;;;;;;;;;;;;;;5052902;28;19923;-64
2023/12/19 08:58:30;;;;;;;;;;;;;;;;;;5049745;28;20376;-65
2023/12/19 09:00:56;;;;;;;;;;;;;;;;;;5043401;28;19967;-65
2023/12/19 09:03:23;;;;;;;;;;;;;;;;;;5051815;28;19956;-65
2023/12/19 09:05:50;;;;;;;;;;;;;;;;;;5051367;28;19917;-65
2023/12/19 09:08:15;;;;;;;;;;;;;;;;;;5052590;28;20368;-66
2023/12/19 09:10:41;;;;;;;;;;;;;;;;;;5044780;28;20039;-66
2023/12/19 09:13:07;;;;;;;;;;;;;;;;;;5049662;28;19916;-66
2023/12/19 09:15:33;;;;;;;;;;;;;;;;;;5048983;28;19913;-66
2023/12/19 09:17:59;;;;;;;;;;;;;;;;;;5050971;28;19909;-66
2023/12/19 09:20:25;;;;;;;;;;;;;;;;;;5035302;28;19921;-63
2023/12/19 09:22:51;;;;;;;;;;;;;;;;;;5036906;28;19909;-63
2023/12/19 09:25:18;;;;;;;;;;;;;;;;;;5045817;28;19913;-63
2023/12/19 09:27:44;;;;;;;;;;;;;;;;;;5051829;28;19916;-63
2023/12/19 09:30:09;;;;;;;;;;;;;;;;;;5052858;28;19955;-63
2023/12/19 09:32:35;;;;;;;;;;;;;;;;;;5051045;28;20415;-63
2023/12/19 09:35:01;;;;;;;;;;;;;;;;;;5042078;28;20280;-63
2023/12/19 09:37:27;;;;;;;;;;;;;;;;;;5044057;28;19967;-61
2023/12/19 09:39:53;;;;;;;;;;;;;;;;;;5041719;28;19913;-64
2023/12/19 09:42:19;;;;;;;;;;;;;;;;;;5050896;28;19942;-63
2023/12/19 09:44:45;;;;;;;;;;;;;;;;;;5043872;28;19913;-63
2023/12/19 09:47:11;;;;;;;;;;;;;;;;;;5039249;28;19919;-60
2023/12/19 09:49:39;;;;;;;;;;;;;;;;;;5045428;28;19936;-63
2023/12/19 09:52:05;;;;;;;;;;;;;;;;;;5044992;28;19921;-63
2023/12/19 09:54:31;;;;;;;;;;;;;;;;;;5051060;28;20399;-63
2023/12/19 09:56:59;;;;;;;;;;;;;;;;;;5045201;28;20399;-63
2023/12/19 09:59:25;;;;;;;;;;;;;;;;;;5052368;28;19916;-63
2023/12/19 10:01:53;;;;;;;;;;;;;;;;;;5050231;28;19913;-63
2023/12/19 10:04:19;;;;;;;;;;;;;;;;;;5041649;28;20322;-63
2023/12/19 10:06:45;;;;;;;;;;;;;;;;;;5049323;28;19913;-61
2023/12/19 10:09:15;;;;;;;;;;;;;;;;;;5032919;28;19959;-64
2023/12/19 10:11:41;;;;;;;;;;;;;;;;;;5047815;28;19940;-63
2023/12/19 10:14:07;;;;;;;;;;;;;;;;;;5051037;28;19908;-60
2023/12/19 10:16:33;;;;;;;;;;;;;;;;;;5050885;28;20058;-62
2023/12/19 10:18:59;;;;;;;;;;;;;;;;;;5040960;28;19928;-61
2023/12/19 10:21:28;;;;;;;;;;;;;;;;;;5050254;28;19948;-59
2023/12/19 10:23:54;;;;;;;;;;;;;;;;;;5033519;28;20241;-61
2023/12/19 10:26:20;;;;;;;;;;;;;;;;;;5034406;28;20035;-61
2023/12/19 10:28:47;;;;;;;;;;;;;;;;;;5048148;28;19916;-65
2023/12/19 10:31:15;;;;;;;;;;;;;;;;;;5048408;28;19931;-64
2023/12/19 10:33:41;;;;;;;;;;;;;;;;;;5049669;28;20390;-66
2023/12/19 10:36:07;;;;;;;;;;;;;;;;;;5038985;28;20348;-66
2023/12/19 10:38:33;;;;;;;;;;;;;;;;;;5042736;28;19968;-66
2023/12/19 10:40:59;;;;;;;;;;;;;;;;;;5040742;28;19921;-66
2023/12/19 10:43:25;;;;;;;;;;;;;;;;;;5046540;28;20008;-66
2023/12/19 10:45:51;;;;;;;;;;;;;;;;;;5038889;28;19919;-66
2023/12/19 10:48:17;;;;;;;;;;;;;;;;;;5042595;28;20325;-66
2023/12/19 10:50:43;;;;;;;;;;;;;;;;;;5039574;28;19978;-66
2023/12/19 10:53:09;;;;;;;;;;;;;;;;;;5050972;28;20327;-66
2023/12/19 10:55:34;;;;;;;;;;;;;;;;;;5038720;28;19908;-66
2023/12/19 10:58:02;;;;;;;;;;;;;;;;;;5049654;28;19979;-65
2023/12/19 11:00:30;;;;;;;;;;;;;;;;;;5048094;28;19935;-66
2023/12/19 11:02:57;;;;;;;;;;;;;;;;;;5047534;28;19917;-66
2023/12/19 11:05:22;;;;;;;;;;;;;;;;;;5040329;28;19944;-65
2023/12/19 11:07:48;;;;;;;;;;;;;;;;;;5043797;28;19964;-66
2023/12/19 11:10:14;;;;;;;;;;;;;;;;;;5039832;28;19923;-66
2023/12/19 11:12:41;;;;;;;;;;;;;;;;;;5041450;28;19942;-66
2023/12/19 11:15:07;;;;;;;;;;;;;;;;;;5046342;28;19913;-66
2023/12/19 11:17:32;;;;;;;;;;;;;;;;;;5034672;28;20007;-65
2023/12/19 11:19:58;;;;;;;;;;;;;;;;;;5044904;28;20385;-66
2023/12/19 11:22:25;;;;;;;;;;;;;;;;;;5048066;28;20388;-66
2023/12/19 11:24:51;;;;;;;;;;;;;;;;;;5038061;28;19909;-66
2023/12/19 11:27:17;;;;;;;;;;;;;;;;;;5042876;28;19939;-66
2023/12/19 11:29:44;;;;;;;;;;;;;;;;;;5046528;28;19917;-66
2023/12/19 11:32:10;;;;;;;;;;;;;;;;;;5048446;28;19986;-66
2023/12/19 11:34:36;;;;;;;;;;;;;;;;;;5038086;28;20371;-66
2023/12/19 11:37:04;;;;;;;;;;;;;;;;;;5046646;28;19909;-66
2023/12/19 11:39:31;;;;;;;;;;;;;;;;;;5050867;28;20356;-65
2023/12/19 11:41:57;;;;;;;;;;;;;;;;;;5046944;28;19960;-66
2023/12/19 11:44:23;;;;;;;;;;;;;;;;;;5047489;28;19913;-65
2023/12/19 11:46:49;;;;;;;;;;;;;;;;;;5053345;28;19921;-66
2023/12/19 11:49:14;;;;;;;;;;;;;;;;;;5041613;28;19940;-65
2023/12/19 11:51:40;;;;;;;;;;;;;;;;;;5042827;28;19917;-65
2023/12/19 11:54:10;;;;;;;;;;;;;;;;;;5053916;28;20010;-66
2023/12/19 11:56:36;;;;;;;;;;;;;;;;;;5043513;28;19983;-66
2023/12/19 11:59:02;;;;;;;;;;;;;;;;;;5046127;28;19949;-66
2023/12/19 12:01:28;;;;;;;;;;;;;;;;;;5054001;28;19919;-66
2023/12/19 12:03:54;;;;;;;;;;;;;;;;;;5041808;28;19909;-66
2023/12/19 12:06:20;;;;;;;;;;;;;;;;;;5054638;28;20429;-66
2023/12/19 12:08:46;;;;;;;;;;;;;;;;;;5050721;28;19990;-66
2023/12/19 12:11:12;;;;;;;;;;;;;;;;;;5045766;28;20046;-66
2023/12/19 12:13:38;;;;;;;;;;;;;;;;;;5039644;28;20409;-66
2023/12/19 12:16:05;;;;;;;;;;;;;;;;;;5035780;28;19916;-66
2023/12/19 12:18:31;;;;;;;;;;;;;;;;;;5048566;28;19909;-66
2023/12/19 12:20:57;;;;;;;;;;;;;;;;;;5047444;28;20394;-65
2023/12/19 12:23:23;;;;;;;;;;;;;;;;;;5041628;28;20050;-65
2023/12/19 12:25:49;;;;;;;;;;;;;;;;;;5052231;28;19995;-66
2023/12/19 12:28:17;;;;;;;;;;;;;;;;;;5040738;28;20386;-65
2023/12/19 12:30:43;;;;;;;;;;;;;;;;;;5048460;28;19909;-66
2023/12/19 12:33:09;;;;;;;;;;;;;;;;;;5049721;28;19920;-66
2023/12/19 12:35:35;;;;;;;;;;;;;;;;;;5054562;28;19912;-66
2023/12/19 12:38:01;;;;;;;;;;;;;;;;;;5041158;28;19996;-66
2023/12/19 12:40:27;;;;;;;;;;;;;;;;;;5041775;28;20346;-66
2023/12/19 12:42:53;;;;;;;;;;;;;;;;;;5047902;28;19909;-66
2023/12/19 12:45:19;;;;;;;;;;;;;;;;;;5049619;28;19913;-66
2023/12/19 12:47:45;;;;;;;;;;;;;;;;;;5038624;28;20008;-66
2023/12/19 12:50:11;;;;;;;;;;;;;;;;;;5044151;28;20007;-65
2023/12/19 12:52:37;;;;;;;;;;;;;;;;;;5052010;28;20372;-66
2023/12/19 12:55:03;;;;;;;;;;;;;;;;;;5051885;28;19921;-66
2023/12/19 12:57:30;;;;;;;;;;;;;;;;;;5047638;28;19908;-66
2023/12/19 12:59:55;;;;;;;;;;;;;;;;;;5041943;28;19920;-65
2023/12/19 13:02:21;;;;;;;;;;;;;;;;;;5053319;28;20381;-66
2023/12/19 13:04:47;;;;;;;;;;;;;;;;;;5050747;28;19986;-65
2023/12/19 13:07:14;;;;;;;;;;;;;;;;;;5052483;28;20020;-66
2023/12/19 13:09:39;;;;;;;;;;;;;;;;;;5053379;28;19913;-65
2023/12/19 13:12:05;;;;;;;;;;;;;;;;;;5048905;28;19963;-66
2023/12/19 13:14:31;;;;;;;;;;;;;;;;;;5047411;28;19913;-65
2023/12/19 13:16:57;;;;;;;;;;;;;;;;;;5048215;28;19967;-66
2023/12/19 13:19:23;;;;;;;;;;;;;;;;;;5044306;28;20102;-66
2023/12/19 13:21:49;;;;;;;;;;;;;;;;;;5038918;28;19917;-66
2023/12/19 13:24:17;;;;;;;;;;;;;;;;;;5051452;28;19917;-66
2023/12/19 13:26:43;;;;;;;;;;;;;;;;;;5052288;28;19916;-66
2023/12/19 13:29:09;;;;;;;;;;;;;;;;;;5052355;28;19967;-65
2023/12/19 13:31:37;;;;;;;;;;;;;;;;;;5050864;28;19925;-65
2023/12/19 13:34:04;;;;;;;;;;;;;;;;;;5052382;28;19909;-65
2023/12/19 13:36:30;;;;;;;;;;;;;;;;;;5047675;28;19913;-65
2023/12/19 13:38:56;;;;;;;;;;;;;;;;;;5047059;28;20269;-65
2023/12/19 13:41:22;;;;;;;;;;;;;;;;;;5040449;28;20004;-66
2023/12/19 13:43:48;;;;;;;;;;;;;;;;;;5052229;28;20000;-66
2023/12/19 13:46:14;;;;;;;;;;;;;;;;;;5041057;28;19947;-66
2023/12/19 13:48:40;;;;;;;;;;;;;;;;;;5040973;28;20013;-66
2023/12/19 13:51:06;;;;;;;;;;;;;;;;;;5037371;28;20399;-66
2023/12/19 13:53:32;;;;;;;;;;;;;;;;;;5043647;28;19917;-65
2023/12/19 13:55:57;;;;;;;;;;;;;;;;;;5050645;28;19967;-66
2023/12/19 13:58:23;;;;;;;;;;;;;;;;;;5047963;28;20003;-66
2023/12/19 14:00:51;;;;;;;;;;;;;;;;;;5045302;28;19919;-61
2023/12/19 14:03:17;;;;;;;;;;;;;;;;;;5047455;28;19927;-61
2023/12/19 14:05:43;;;;;;;;;;;;;;;;;;5052657;28;19947;-61
2023/12/19 14:08:09;;;;;;;;;;;;;;;;;;5044051;28;19912;-64
2023/12/19 14:10:35;;;;;;;;;;;;;;;;;;5047486;28;19917;-65
2023/12/19 14:13:03;;;;;;;;;;;;;;;;;;5046278;28;20269;-66
2023/12/19 14:15:29;;;;;;;;;;;;;;;;;;5051276;28;19913;-65
2023/12/19 14:17:55;;;;;;;;;;;;;;;;;;5040755;28;20395;-65
2023/12/19 14:20:21;;;;;;;;;;;;;;;;;;5050074;28;19978;-66
2023/12/19 14:22:46;;;;;;;;;;;;;;;;;;5051143;28;20021;-65
2023/12/19 14:25:12;;;;;;;;;;;;;;;;;;5045973;28;19999;-65
2023/12/19 14:27:39;;;;;;;;;;;;;;;;;;5044083;28;19917;-65
2023/12/19 14:30:06;;;;;;;;;;;;;;;;;;5054389;28;19913;-65
2023/12/19 14:32:32;;;;;;;;;;;;;;;;;;5052951;28;19917;-65
2023/12/19 14:34:58;;;;;;;;;;;;;;;;;;5047495;28;20353;-65
2023/12/19 14:37:24;;;;;;;;;;;;;;;;;;5047981;28;19950;-66
2023/12/19 14:39:51;;;;;;;;;;;;;;;;;;5048419;28;19912;-65
2023/12/19 14:42:18;;;;;;;;;;;;;;;;;;5046832;28;19917;-65
2023/12/19 14:44:44;;;;;;;;;;;;;;;;;;5049984;28;19913;-65
2023/12/19 14:47:09;;;;;;;;;;;;;;;;;;5050418;28;20371;-65
2023/12/19 14:49:40;;;;;;;;;;;;;;;;;;5041868;28;20011;-66
2023/12/19 14:52:06;;;;;;;;;;;;;;;;;;5042343;28;19932;-65
2023/12/19 14:54:32;;;;;;;;;;;;;;;;;;5036306;28;19913;-65
2023/12/19 14:56:58;;;;;;;;;;;;;;;;;;5044300;28;19960;-65
2023/12/19 14:59:24;;;;;;;;;;;;;;;;;;5040931;28;19919;-66
2023/12/19 15:01:50;;;;;;;;;;;;;;;;;;5039478;28;19913;-65
2023/12/19 15:04:16;;;;;;;;;;;;;;;;;;5046076;28;20388;-65
2023/12/19 15:06:41;;;;;;;;;;;;;;;;;;5048995;28;20455;-65
2023/12/19 15:09:08;;;;;;;;;;;;;;;;;;5047637;28;19986;-63
2023/12/19 15:11:34;;;;;;;;;;;;;;;;;;5050878;28;19921;-60
2023/12/19 15:13:59;;;;;;;;;;;;;;;;;;5049282;28;19912;-60
2023/12/19 15:16:25;;;;;;;;;;;;;;;;;;5047426;28;19967;-60
2023/12/19 15:18:51;;;;;;;;;;;;;;;;;;5051954;28;20007;-65
2023/12/19 15:21:18;;;;;;;;;;;;;;;;;;5042836;28;19913;-65
2023/12/19 15:23:43;;;;;;;;;;;;;;;;;;5048984;28;19921;-65
2023/12/19 15:26:09;;;;;;;;;;;;;;;;;;5041799;28;19963;-66
2023/12/19 15:28:35;;;;;;;;;;;;;;;;;;5041671;28;19960;-65
2023/12/19 15:31:01;;;;;;;;;;;;;;;;;;5036166;28;20376;-65
2023/12/19 15:33:27;;;;;;;;;;;;;;;;;;5040474;28;19944;-65
2023/12/19 15:35:53;;;;;;;;;;;;;;;;;;5048159;28;19972;-65
2023/12/19 15:38:19;;;;;;;;;;;;;;;;;;5046175;28;20424;-65
2023/12/19 15:40:45;;;;;;;;;;;;;;;;;;5044734;28;19959;-65
2023/12/19 15:43:11;;;;;;;;;;;;;;;;;;5048961;28;19917;-65
2023/12/19 15:45:37;;;;;;;;;;;;;;;;;;5047100;28;19968;-65
2023/12/19 15:48:03;;;;;;;;;;;;;;;;;;5043024;28;20283;-65
2023/12/19 15:50:29;;;;;;;;;;;;;;;;;;5047407;28;19921;-65
2023/12/19 15:52:55;;;;;;;;;;;;;;;;;;5058250;28;19975;-65
2023/12/19 15:55:21;;;;;;;;;;;;;;;;;;5048293;28;19916;-65
2023/12/19 15:57:47;;;;;;;;;;;;;;;;;;5049774;28;20373;-65
2023/12/19 16:00:13;;;;;;;;;;;;;;;;;;5046298;28;19956;-65
2023/12/19 16:02:41;;;;;;;;;;;;;;;;;;5062300;28;19916;-65
2023/12/19 16:05:07;;;;;;;;;;;;;;;;;;5056980;28;20007;-65
2023/12/19 16:07:33;;;;;;;;;;;;;;;;;;5047303;28;20028;-65
2023/12/19 16:10:01;;;;;;;;;;;;;;;;;;5048323;28;19920;-65
2023/12/19 16:12:29;;;;;;;;;;;;;;;;;;5044917;28;19928;-65
2023/12/19 16:14:55;;;;;;;;;;;;;;;;;;5043484;28;19947;-65
2023/12/19 16:17:21;;;;;;;;;;;;;;;;;;5040926;28;19921;-65
2023/12/19 16:19:47;;;;;;;;;;;;;;;;;;5047346;28;19913;-65
2023/12/19 16:22:13;;;;;;;;;;;;;;;;;;5046520;28;19913;-65
2023/12/19 16:24:39;;;;;;;;;;;;;;;;;;5045289;28;19920;-65
2023/12/19 16:27:05;;;;;;;;;;;;;;;;;;5045164;28;20360;-65
2023/12/19 16:29:34;;;;;;;;;;;;;;;;;;5043357;28;19927;-60
2023/12/19 16:32:00;;;;;;;;;;;;;;;;;;5056501;28;20426;-61
2023/12/19 16:34:26;;;;;;;;;;;;;;;;;;5061255;28;19913;-60
2023/12/19 16:36:52;;;;;;;;;;;;;;;;;;5053041;28;20414;-60